Time;durP1;ratioP1;P1;durP2;ratioP2;P2;SDS_P1;SDS_P2;PMS_P1;PMS_P2;Temp;Humidity;BMP_temperature;BMP_pressure;BME280_temperature;BME280_humidity;BME280_pressure;Samples;Min_cycle;Max_cycle;Signal;HPM_P1;HPM_P2
2023/10/01 00:00:57;;;;;;;;;;;14.70;80.30;;;;;;5078896;28;19915;-80
2023/10/01 00:03:22;;;;;;;;;;;14.70;80.40;;;;;;5078490;28;19915;-81
2023/10/01 00:05:48;;;;;;;;;;;14.70;80.50;;;;;;5075379;28;20014;-80
2023/10/01 00:08:14;;;;;;;;;;;14.60;80.90;;;;;;5075524;28;19971;-81
2023/10/01 00:10:41;;;;;;;;;;;14.60;81.50;;;;;;5064448;28;20185;-81
2023/10/01 00:13:07;;;;;;;;;;;14.50;81.60;;;;;;5077733;28;19912;-80
2023/10/01 00:15:32;;;;;;;;;;;14.50;81.50;;;;;;5072275;28;19915;-80
2023/10/01 00:17:58;;;;;;;;;;;14.40;81.60;;;;;;5073457;28;19966;-81
2023/10/01 00:20:24;;;;;;;;;;;14.40;81.90;;;;;;5076896;28;19915;-80
2023/10/01 00:22:51;;;;;;;;;;;14.30;81.80;;;;;;5074257;28;19913;-81
2023/10/01 00:25:22;;;;;;;;;;;14.30;81.80;;;;;;5078332;28;19920;-81
2023/10/01 00:27:47;;;;;;;;;;;14.30;82.10;;;;;;5070119;28;19963;-81
2023/10/01 00:30:13;;;;;;;;;;;14.20;82.00;;;;;;5071853;28;20301;-81
2023/10/01 00:32:38;;;;;;;;;;;14.20;82.50;;;;;;5076317;28;19982;-81
2023/10/01 00:35:04;;;;;;;;;;;14.10;82.40;;;;;;5076646;28;19920;-81
2023/10/01 00:37:30;;;;;;;;;;;14.10;82.00;;;;;;5074377;28;19917;-80
2023/10/01 00:39:58;;;;;;;;;;;14.10;82.20;;;;;;5073449;28;19913;-80
2023/10/01 00:42:24;;;;;;;;;;;14.10;82.10;;;;;;5072106;28;20400;-81
2023/10/01 00:44:50;;;;;;;;;;;14.10;81.90;;;;;;5066264;28;19913;-81
2023/10/01 00:47:16;;;;;;;;;;;14.20;81.80;;;;;;5075576;28;20401;-79
2023/10/01 00:49:46;;;;;;;;;;;14.10;81.90;;;;;;5076106;28;19923;-81
2023/10/01 00:52:12;;;;;;;;;;;14.10;81.60;;;;;;5071481;28;20333;-80
2023/10/01 00:54:37;;;;;;;;;;;14.10;81.40;;;;;;5074548;28;19928;-80
2023/10/01 00:57:03;;;;;;;;;;;14.20;81.30;;;;;;5070663;28;19921;-80
2023/10/01 00:59:32;;;;;;;;;;;14.30;81.00;;;;;;5071350;28;19959;-80
2023/10/01 01:01:58;;;;;;;;;;;14.30;80.80;;;;;;5066178;28;19912;-80
2023/10/01 01:04:24;;;;;;;;;;;14.20;81.00;;;;;;5077466;28;19915;-80
2023/10/01 01:06:50;;;;;;;;;;;14.20;81.10;;;;;;5071663;28;20400;-81
2023/10/01 01:09:16;;;;;;;;;;;14.20;81.10;;;;;;5067853;28;19920;-81
2023/10/01 01:11:46;;;;;;;;;;;14.20;81.10;;;;;;5072621;28;19924;-81
2023/10/01 01:14:11;;;;;;;;;;;14.20;81.10;;;;;;5069503;28;20652;-81
2023/10/01 01:16:37;;;;;;;;;;;14.10;81.10;;;;;;5074479;28;19920;-81
2023/10/01 01:19:04;;;;;;;;;;;14.10;81.30;;;;;;5072758;28;19912;-80
2023/10/01 01:21:30;;;;;;;;;;;14.20;81.60;;;;;;5074512;28;19917;-81
2023/10/01 01:23:57;;;;;;;;;;;14.20;81.30;;;;;;5070083;28;20000;-80
2023/10/01 01:26:23;;;;;;;;;;;14.20;81.10;;;;;;5069463;28;19916;-80
2023/10/01 01:28:49;;;;;;;;;;;14.30;80.60;;;;;;5066833;28;19999;-80
2023/10/01 01:31:14;;;;;;;;;;;14.20;80.40;;;;;;5070084;28;19913;-80
2023/10/01 01:33:40;;;;;;;;;;;14.30;80.30;;;;;;5076008;28;19913;-80
2023/10/01 01:36:06;;;;;;;;;;;14.30;80.40;;;;;;5076897;28;19909;-80
2023/10/01 01:38:32;;;;;;;;;;;14.30;80.60;;;;;;5072800;28;19923;-81
2023/10/01 01:40:57;;;;;;;;;;;14.30;80.40;;;;;;5066347;28;20369;-80
2023/10/01 01:43:23;;;;;;;;;;;14.30;80.80;;;;;;5089936;28;19913;-80
2023/10/01 01:45:55;;;;;;;;;;;14.20;81.10;;;;;;5075425;28;19913;-81
2023/10/01 01:48:21;;;;;;;;;;;14.20;81.50;;;;;;5077035;28;19909;-79
2023/10/01 01:50:47;;;;;;;;;;;14.20;81.70;;;;;;5075306;28;19940;-80
2023/10/01 01:53:13;;;;;;;;;;;14.10;81.80;;;;;;5074687;28;20332;-80
2023/10/01 01:55:39;;;;;;;;;;;14.10;81.80;;;;;;5074380;28;20008;-81
2023/10/01 01:58:10;;;;;;;;;;;14.10;82.00;;;;;;5071459;28;19939;-81
2023/10/01 02:00:42;;;;;;;;;;;14.00;82.10;;;;;;5068063;28;19916;-80
2023/10/01 02:03:11;;;;;;;;;;;13.90;82.60;;;;;;5069145;28;19912;-81
2023/10/01 02:05:41;;;;;;;;;;;14.00;82.50;;;;;;5074970;28;19918;-81
2023/10/01 02:08:23;;;;;;;;;;;14.00;82.10;;;;;;5075627;28;20361;-80
2023/10/01 02:10:53;;;;;;;;;;;14.00;82.00;;;;;;5064577;28;19920;-80
2023/10/01 02:13:19;;;;;;;;;;;14.00;81.70;;;;;;5074022;28;19969;-80
2023/10/01 02:15:48;;;;;;;;;;;14.10;81.10;;;;;;5070733;28;20491;-81
2023/10/01 02:18:16;;;;;;;;;;;14.00;81.50;;;;;;5076462;28;19923;-80
2023/10/01 02:20:48;;;;;;;;;;;14.00;82.10;;;;;;5079477;28;19951;-81
2023/10/01 02:23:13;;;;;;;;;;;14.00;82.20;;;;;;5063808;28;19912;-80
2023/10/01 02:25:45;;;;;;;;;;;14.00;82.00;;;;;;5062427;28;20302;-80
2023/10/01 02:28:15;;;;;;;;;;;14.00;82.20;;;;;;5068738;28;19927;-80
2023/10/01 02:30:46;;;;;;;;;;;13.90;82.10;;;;;;5063696;28;20338;-80
2023/10/01 02:33:21;;;;;;;;;;;13.90;82.30;;;;;;5070204;28;19965;-80
2023/10/01 02:35:48;;;;;;;;;;;13.90;82.40;;;;;;5071277;28;19984;-80
2023/10/01 02:41:01;;;;;;;;;;;13.90;82.60;;;;;;5074411;28;20335;-80
2023/10/01 02:43:33;;;;;;;;;;;13.80;82.60;;;;;;5072272;28;19916;-80
2023/10/01 02:45:59;;;;;;;;;;;13.80;82.70;;;;;;5070572;28;19923;-81
2023/10/01 02:48:26;;;;;;;;;;;13.70;83.00;;;;;;5076362;28;19908;-80
2023/10/01 02:50:52;;;;;;;;;;;13.70;82.90;;;;;;5072602;28;19917;-80
2023/10/01 02:53:20;;;;;;;;;;;13.80;82.90;;;;;;5068794;28;20004;-81
2023/10/01 02:55:45;;;;;;;;;;;13.70;83.10;;;;;;5073276;28;20001;-80
2023/10/01 02:58:18;;;;;;;;;;;13.60;83.10;;;;;;5068384;28;20369;-80
2023/10/01 03:00:44;;;;;;;;;;;13.70;83.40;;;;;;5071056;28;19921;-80
2023/10/01 03:03:15;;;;;;;;;;;13.80;83.10;;;;;;5073924;28;19930;-81
2023/10/01 03:05:43;;;;;;;;;;;13.80;83.10;;;;;;5073988;28;19917;-80
2023/10/01 03:08:25;;;;;;;;;;;13.80;83.10;;;;;;5069747;28;19967;-81
2023/10/01 03:10:52;;;;;;;;;;;13.60;83.40;;;;;;5071275;28;19920;-79
2023/10/01 03:13:19;;;;;;;;;;;13.60;83.50;;;;;;5068359;28;19916;-80
2023/10/01 03:16:33;;;;;;;;;;;13.70;83.40;;;;;;5073907;28;19942;-81
2023/10/01 03:18:34;;;;;;;;;;;13.70;83.30;;;;;;5068794;28;20050;-80
2023/10/01 03:21:07;;;;;;;;;;;13.70;83.30;;;;;;5068062;28;19908;-81
2023/10/01 03:23:33;;;;;;;;;;;13.70;83.60;;;;;;5069051;28;19912;-80
2023/10/01 03:26:08;;;;;;;;;;;13.60;83.60;;;;;;5067503;28;20424;-81
2023/10/01 03:31:25;;;;;;;;;;;13.60;84.20;;;;;;5070819;28;19942;-80
2023/10/01 03:33:53;;;;;;;;;;;13.70;83.70;;;;;;5072908;28;19913;-81
2023/10/01 03:36:25;;;;;;;;;;;13.70;83.80;;;;;;5075079;28;19915;-81
2023/10/01 03:38:50;;;;;;;;;;;13.80;83.50;;;;;;5068880;28;19916;-80
2023/10/01 03:41:22;;;;;;;;;;;13.80;82.90;;;;;;5071853;28;19912;-81
2023/10/01 03:43:50;;;;;;;;;;;13.80;82.90;;;;;;5071494;28;19919;-80
2023/10/01 03:51:58;;;;;;;;;;;14.00;83.30;;;;;;5077995;28;19927;-80
2023/10/01 03:54:28;;;;;;;;;;;14.00;82.90;;;;;;5075326;28;20018;-80
2023/10/01 03:56:57;;;;;;;;;;;14.00;81.70;;;;;;5073312;28;20007;-80
2023/10/01 03:59:23;;;;;;;;;;;14.10;81.40;;;;;;5077151;28;19908;-80
2023/10/01 04:02:02;;;;;;;;;;;14.10;81.20;;;;;;5071197;28;19916;-80
2023/10/01 04:04:32;;;;;;;;;;;14.10;81.30;;;;;;5076754;28;19934;-80
2023/10/01 04:07:11;;;;;;;;;;;14.10;81.30;;;;;;5070160;28;19940;-80
2023/10/01 04:09:46;;;;;;;;;;;14.20;81.20;;;;;;5076412;28;19913;-80
2023/10/01 04:12:19;;;;;;;;;;;14.20;80.90;;;;;;5076901;28;19924;-81
2023/10/01 04:14:48;;;;;;;;;;;14.20;80.60;;;;;;5078533;28;19935;-80
2023/10/01 04:17:20;;;;;;;;;;;14.20;80.50;;;;;;5070668;28;20011;-80
2023/10/01 04:19:49;;;;;;;;;;;14.20;80.60;;;;;;5079799;28;19924;-80
2023/10/01 04:22:21;;;;;;;;;;;14.30;79.70;;;;;;5080117;28;19909;-80
2023/10/01 04:25:00;;;;;;;;;;;14.40;79.80;;;;;;5077375;28;19913;-80
2023/10/01 04:27:30;;;;;;;;;;;14.40;79.80;;;;;;5084459;28;19920;-80
2023/10/01 04:30:00;;;;;;;;;;;14.30;79.90;;;;;;5079247;28;20408;-81
2023/10/01 04:32:27;;;;;;;;;;;14.20;80.10;;;;;;5088664;28;19897;-80
2023/10/01 04:34:58;;;;;;;;;;;14.30;79.70;;;;;;5091698;28;19908;-80
2023/10/01 04:37:41;;;;;;;;;;;14.40;79.80;;;;;;5089976;28;19913;-80
2023/10/01 04:42:51;;;;;;;;;;;14.50;79.20;;;;;;5078189;28;19929;-80
2023/10/01 04:45:27;;;;;;;;;;;14.40;79.30;;;;;;5081798;28;19951;-81
2023/10/01 04:47:55;;;;;;;;;;;14.40;79.70;;;;;;5077826;28;19921;-81
2023/10/01 04:50:24;;;;;;;;;;;14.40;79.30;;;;;;5080852;28;19908;-82
2023/10/01 04:52:49;;;;;;;;;;;14.40;79.50;;;;;;5076721;28;20366;-80
2023/10/01 04:55:15;;;;;;;;;;;14.40;79.50;;;;;;5079113;28;19948;-80
2023/10/01 04:57:41;;;;;;;;;;;14.50;79.40;;;;;;5077625;28;19920;-80
2023/10/01 05:00:10;;;;;;;;;;;14.50;79.50;;;;;;5078584;28;20423;-81
2023/10/01 05:02:36;;;;;;;;;;;14.50;79.20;;;;;;5074712;28;19919;-81
2023/10/01 05:05:11;;;;;;;;;;;14.60;79.10;;;;;;5075664;28;19916;-81
2023/10/01 05:07:36;;;;;;;;;;;14.60;79.10;;;;;;5074820;28;19909;-80
2023/10/01 05:10:04;;;;;;;;;;;14.60;80.10;;;;;;5068472;28;19935;-81
2023/10/01 05:12:31;;;;;;;;;;;14.60;80.20;;;;;;5076319;28;20007;-80
2023/10/01 05:14:59;;;;;;;;;;;14.50;79.40;;;;;;5067804;28;20011;-81
2023/10/01 05:17:30;;;;;;;;;;;14.50;79.40;;;;;;5076311;28;19966;-81
2023/10/01 05:19:57;;;;;;;;;;;14.60;79.30;;;;;;5077396;28;19918;-81
2023/10/01 05:22:23;;;;;;;;;;;14.50;79.20;;;;;;5077126;28;20443;-80
2023/10/01 05:24:49;;;;;;;;;;;14.50;79.40;;;;;;5072546;28;19959;-80
2023/10/01 05:27:22;;;;;;;;;;;14.60;79.00;;;;;;5069788;28;19913;-80
2023/10/01 05:29:48;;;;;;;;;;;14.50;79.30;;;;;;5066197;28;19951;-80
2023/10/01 05:32:18;;;;;;;;;;;14.60;79.60;;;;;;5071709;28;19919;-80
2023/10/01 05:34:46;;;;;;;;;;;14.60;79.40;;;;;;5070841;28;20288;-79
2023/10/01 05:37:20;;;;;;;;;;;14.60;79.40;;;;;;5076812;28;19913;-80
2023/10/01 05:39:55;;;;;;;;;;;14.50;79.40;;;;;;5069295;28;19913;-80
2023/10/01 05:42:25;;;;;;;;;;;14.60;79.10;;;;;;5092256;28;19908;-80
2023/10/01 05:44:59;;;;;;;;;;;14.60;79.00;;;;;;5073943;28;19917;-80
2023/10/01 05:47:50;;;;;;;;;;;14.60;79.70;;;;;;5070902;28;19923;-80
2023/10/01 05:50:18;;;;;;;;;;;14.60;80.10;;;;;;5065536;28;19921;-78
2023/10/01 05:52:45;;;;;;;;;;;14.50;80.30;;;;;;5068927;28;19971;-78
2023/10/01 05:55:15;;;;;;;;;;;14.50;80.90;;;;;;5070214;28;20014;-80
2023/10/01 05:57:43;;;;;;;;;;;14.40;81.30;;;;;;5076228;28;21602;-79
2023/10/01 06:00:18;;;;;;;;;;;14.30;81.50;;;;;;5068411;28;19913;-78
2023/10/01 06:02:47;;;;;;;;;;;14.30;81.70;;;;;;5071678;28;20012;-80
2023/10/01 06:05:25;;;;;;;;;;;14.20;81.70;;;;;;5071637;28;19921;-79
2023/10/01 06:07:52;;;;;;;;;;;14.20;82.10;;;;;;5074550;28;19924;-80
2023/10/01 06:10:19;;;;;;;;;;;14.20;82.20;;;;;;5072495;28;19936;-80
2023/10/01 06:12:50;;;;;;;;;;;14.10;82.30;;;;;;5075125;28;19908;-81
2023/10/01 06:15:20;;;;;;;;;;;14.10;82.30;;;;;;5074486;28;19923;-81
2023/10/01 06:17:49;;;;;;;;;;;14.20;82.30;;;;;;5074575;28;19916;-80
2023/10/01 06:20:23;;;;;;;;;;;14.20;82.40;;;;;;5077147;28;19920;-80
2023/10/01 06:22:49;;;;;;;;;;;14.20;82.60;;;;;;5073165;28;19931;-81
2023/10/01 06:25:15;;;;;;;;;;;14.20;82.60;;;;;;5076172;28;19924;-81
2023/10/01 06:27:41;;;;;;;;;;;14.10;82.90;;;;;;5079488;28;19908;-81
2023/10/01 06:30:08;;;;;;;;;;;14.10;82.80;;;;;;5076638;28;19912;-80
2023/10/01 06:32:34;;;;;;;;;;;14.10;83.00;;;;;;5077118;28;19909;-79
2023/10/01 06:35:02;;;;;;;;;;;14.10;82.90;;;;;;5071059;28;20436;-81
2023/10/01 06:37:45;;;;;;;;;;;14.10;83.20;;;;;;5070684;28;19912;-80
2023/10/01 06:40:29;;;;;;;;;;;14.10;83.60;;;;;;5066153;28;19912;-80
2023/10/01 06:42:55;;;;;;;;;;;14.10;83.60;;;;;;5071031;28;19927;-80
2023/10/01 06:45:38;;;;;;;;;;;14.10;83.40;;;;;;5071555;28;19916;-81
2023/10/01 06:48:10;;;;;;;;;;;14.20;83.50;;;;;;5074351;28;20527;-80
2023/10/01 06:50:37;;;;;;;;;;;14.30;83.40;;;;;;5074031;28;19909;-80
2023/10/01 06:53:03;;;;;;;;;;;14.30;83.10;;;;;;5075280;28;19908;-80
2023/10/01 06:55:30;;;;;;;;;;;14.30;83.00;;;;;;5070706;28;20384;-80
2023/10/01 06:57:56;;;;;;;;;;;14.30;82.70;;;;;;5069770;28;19999;-79
2023/10/01 07:00:22;;;;;;;;;;;14.30;82.70;;;;;;5070634;28;19959;-81
2023/10/01 07:02:50;;;;;;;;;;;14.40;82.20;;;;;;5072052;28;19947;-80
2023/10/01 07:05:22;;;;;;;;;;;14.50;81.60;;;;;;5070840;28;19917;-80
2023/10/01 07:07:48;;;;;;;;;;;14.60;81.20;;;;;;5075099;28;20262;-80
2023/10/01 07:10:14;;;;;;;;;;;14.60;79.50;;;;;;5072791;28;19919;-80
2023/10/01 07:12:53;;;;;;;;;;;14.70;78.90;;;;;;5071654;28;19912;-81
2023/10/01 07:15:19;;;;;;;;;;;14.80;78.70;;;;;;5073416;28;20342;-81
2023/10/01 07:17:46;;;;;;;;;;;15.00;78.40;;;;;;5069381;28;19916;-81
2023/10/01 07:20:24;;;;;;;;;;;15.00;78.50;;;;;;5070444;28;19917;-79
2023/10/01 07:22:50;;;;;;;;;;;15.00;78.20;;;;;;5072364;28;19921;-82
2023/10/01 07:28:00;;;;;;;;;;;15.20;78.60;;;;;;5072706;28;19945;-82
2023/10/01 07:30:39;;;;;;;;;;;15.30;78.70;;;;;;5079015;28;19912;-82
2023/10/01 07:33:05;;;;;;;;;;;15.30;78.90;;;;;;5078318;28;20347;-81
2023/10/01 07:35:31;;;;;;;;;;;15.30;78.60;;;;;;5077178;28;19935;-80
2023/10/01 07:37:57;;;;;;;;;;;15.50;77.40;;;;;;5076156;28;19916;-81
2023/10/01 07:40:23;;;;;;;;;;;15.60;76.70;;;;;;5077864;28;20331;-81
2023/10/01 07:42:54;;;;;;;;;;;15.70;76.80;;;;;;5074882;28;19909;-81
2023/10/01 07:45:20;;;;;;;;;;;15.80;76.40;;;;;;5073810;28;19919;-82
2023/10/01 07:47:46;;;;;;;;;;;16.00;75.90;;;;;;5072360;28;19913;-78
2023/10/01 07:50:16;;;;;;;;;;;16.00;75.40;;;;;;5072363;28;19932;-78
2023/10/01 07:52:42;;;;;;;;;;;16.10;75.30;;;;;;5070190;28;19952;-78
2023/10/01 07:57:53;;;;;;;;;;;16.20;75.40;;;;;;5074918;28;19919;-78
2023/10/01 08:00:29;;;;;;;;;;;16.20;75.80;;;;;;5075474;28;19951;-79
2023/10/01 08:05:39;;;;;;;;;;;16.30;75.60;;;;;;5072031;28;19974;-79
2023/10/01 08:08:13;;;;;;;;;;;16.40;75.90;;;;;;5065150;28;20373;-80
2023/10/01 08:10:40;;;;;;;;;;;16.50;75.90;;;;;;5074313;28;20051;-80
2023/10/01 08:13:08;;;;;;;;;;;16.60;75.90;;;;;;5071890;28;20008;-81
2023/10/01 08:15:50;;;;;;;;;;;16.60;75.70;;;;;;5070398;28;19912;-80
2023/10/01 08:21:02;;;;;;;;;;;16.80;75.90;;;;;;5069127;28;20053;-80
2023/10/01 08:23:33;;;;;;;;;;;17.00;75.10;;;;;;5073315;28;19912;-81
2023/10/01 08:28:56;;;;;;;;;;;17.00;74.90;;;;;;5069728;28;20396;-81
2023/10/01 08:34:22;;;;;;;;;;;17.10;74.70;;;;;;5074369;28;20408;-80
2023/10/01 08:36:49;;;;;;;;;;;17.10;75.30;;;;;;5072042;28;19916;-80
2023/10/01 08:39:22;;;;;;;;;;;17.30;74.60;;;;;;5075768;28;20034;-81
2023/10/01 08:41:51;;;;;;;;;;;17.30;74.40;;;;;;5072745;28;19961;-80
2023/10/01 08:44:33;;;;;;;;;;;17.30;74.60;;;;;;5072339;28;19954;-81
2023/10/01 08:47:00;;;;;;;;;;;17.50;73.90;;;;;;5065206;28;20396;-80
2023/10/01 08:49:30;;;;;;;;;;;17.50;74.10;;;;;;5072501;28;20004;-81
2023/10/01 08:52:18;;;;;;;;;;;17.50;74.10;;;;;;5072794;28;19912;-80
2023/10/01 08:54:44;;;;;;;;;;;17.60;74.20;;;;;;5074653;28;19919;-80
2023/10/01 08:57:17;;;;;;;;;;;17.70;74.50;;;;;;5071620;28;20015;-81
2023/10/01 08:59:43;;;;;;;;;;;17.80;73.80;;;;;;5067189;28;20211;-80
2023/10/01 09:02:16;;;;;;;;;;;18.00;73.00;;;;;;5068719;28;19920;-81
2023/10/01 09:04:44;;;;;;;;;;;18.10;73.00;;;;;;5074638;28;19912;-80
2023/10/01 09:07:18;;;;;;;;;;;18.10;72.90;;;;;;5066074;28;19916;-81
2023/10/01 09:10:05;;;;;;;;;;;18.10;72.90;;;;;;5072102;28;19912;-80
2023/10/01 09:12:34;;;;;;;;;;;18.20;72.90;;;;;;5071046;28;20389;-81
2023/10/01 09:15:03;;;;;;;;;;;18.20;72.60;;;;;;5069357;28;19916;-81
2023/10/01 09:17:40;;;;;;;;;;;18.30;72.60;;;;;;5078309;28;19909;-81
2023/10/01 09:20:17;;;;;;;;;;;18.20;73.00;;;;;;5074555;28;19912;-80
2023/10/01 09:22:58;;;;;;;;;;;18.30;72.80;;;;;;5078104;28;19909;-80
2023/10/01 09:25:25;;;;;;;;;;;18.40;72.60;;;;;;5079005;28;19913;-81
2023/10/01 09:27:57;;;;;;;;;;;18.50;72.70;;;;;;5074204;28;19913;-81
2023/10/01 09:30:26;;;;;;;;;;;18.50;72.40;;;;;;5090520;28;19934;-80
2023/10/01 09:32:55;;;;;;;;;;;18.50;72.10;;;;;;5072805;28;20109;-80
2023/10/01 09:35:30;;;;;;;;;;;18.70;72.00;;;;;;5064599;28;20351;-81
2023/10/01 09:38:27;;;;;;;;;;;18.60;72.40;;;;;;5067219;28;19923;-81
2023/10/01 09:40:54;;;;;;;;;;;18.60;72.90;;;;;;5072412;28;19913;-80
2023/10/01 09:43:30;;;;;;;;;;;18.70;72.90;;;;;;5069654;28;19930;-81
2023/10/01 09:45:57;;;;;;;;;;;18.80;72.40;;;;;;5078312;28;19913;-82
2023/10/01 09:48:33;;;;;;;;;;;18.80;73.30;;;;;;5079521;28;19908;-80
2023/10/01 09:51:13;;;;;;;;;;;19.00;72.40;;;;;;5073781;28;19919;-81
2023/10/01 09:53:48;;;;;;;;;;;19.00;72.90;;;;;;5076671;28;19920;-80
2023/10/01 09:56:26;;;;;;;;;;;19.10;71.70;;;;;;5060383;28;19913;-81
2023/10/01 09:59:11;;;;;;;;;;;19.20;71.90;;;;;;5064216;28;19959;-81
2023/10/01 10:01:37;;;;;;;;;;;19.10;72.10;;;;;;5072579;28;19916;-81
2023/10/01 10:04:04;;;;;;;;;;;19.30;71.50;;;;;;5069881;28;20011;-81
2023/10/01 10:06:31;;;;;;;;;;;19.40;71.50;;;;;;5077470;28;19923;-81
2023/10/01 10:09:03;;;;;;;;;;;19.40;71.80;;;;;;5073768;28;19944;-80
2023/10/01 10:11:36;;;;;;;;;;;19.50;71.50;;;;;;5077282;28;19909;-81
2023/10/01 10:14:02;;;;;;;;;;;19.50;71.10;;;;;;5077444;28;20061;-81
2023/10/01 10:16:32;;;;;;;;;;;19.60;70.60;;;;;;5067340;28;19959;-81
2023/10/01 10:19:13;;;;;;;;;;;19.60;70.70;;;;;;5063145;28;19935;-81
2023/10/01 10:24:30;;;;;;;;;;;19.70;71.00;;;;;;5076307;28;19920;-81
2023/10/01 10:27:09;;;;;;;;;;;19.80;70.50;;;;;;5074436;28;19924;-81
2023/10/01 10:29:46;;;;;;;;;;;19.80;71.10;;;;;;5078355;28;19909;-81
2023/10/01 10:32:15;;;;;;;;;;;19.90;70.80;;;;;;5073522;28;19951;-81
2023/10/01 10:35:03;;;;;;;;;;;19.90;70.60;;;;;;5064909;28;20400;-80
2023/10/01 10:37:35;;;;;;;;;;;19.90;70.40;;;;;;5068464;28;19913;-81
2023/10/01 10:40:13;;;;;;;;;;;20.00;69.80;;;;;;5062450;28;19924;-80
2023/10/01 10:42:44;;;;;;;;;;;20.00;70.00;;;;;;5070736;28;20007;-81
2023/10/01 10:45:20;;;;;;;;;;;19.90;70.00;;;;;;5061150;28;19912;-82
2023/10/01 10:48:03;;;;;;;;;;;20.00;70.70;;;;;;5068957;28;20015;-81
2023/10/01 10:50:39;;;;;;;;;;;20.00;70.30;;;;;;5068082;28;19928;-80
2023/10/01 10:53:14;;;;;;;;;;;20.00;69.30;;;;;;5066933;28;19917;-81
2023/10/01 10:56:08;;;;;;;;;;;20.10;69.60;;;;;;5065761;28;19912;-81
2023/10/01 10:59:01;;;;;;;;;;;20.20;69.70;;;;;;5070308;28;19963;-81
2023/10/01 11:01:42;;;;;;;;;;;20.30;69.10;;;;;;5075823;28;19916;-81
2023/10/01 11:04:08;;;;;;;;;;;20.20;69.00;;;;;;5070589;28;19927;-81
2023/10/01 11:06:42;;;;;;;;;;;20.20;68.70;;;;;;5078909;28;19916;-80
2023/10/01 11:09:25;;;;;;;;;;;20.20;69.10;;;;;;5083361;28;19913;-82
2023/10/01 11:11:51;;;;;;;;;;;20.30;69.00;;;;;;5082667;28;20281;-80
2023/10/01 11:14:18;;;;;;;;;;;20.30;69.00;;;;;;5077010;28;19920;-81
2023/10/01 11:16:44;;;;;;;;;;;20.30;69.40;;;;;;5078539;28;19934;-81
2023/10/01 11:19:14;;;;;;;;;;;20.40;69.10;;;;;;5066600;28;19964;-81
2023/10/01 11:21:44;;;;;;;;;;;20.50;68.70;;;;;;5086352;28;19998;-80
2023/10/01 11:24:16;;;;;;;;;;;20.60;68.70;;;;;;5088838;28;19923;-81
2023/10/01 11:27:01;;;;;;;;;;;20.60;68.80;;;;;;5087945;28;19909;-80
2023/10/01 11:29:30;;;;;;;;;;;20.50;68.20;;;;;;5083284;28;19938;-82
2023/10/01 11:31:56;;;;;;;;;;;20.50;68.30;;;;;;5082501;28;19908;-81
2023/10/01 11:34:26;;;;;;;;;;;20.50;68.80;;;;;;5080399;28;19917;-81
2023/10/01 11:36:56;;;;;;;;;;;20.60;68.70;;;;;;5072035;28;19920;-81
2023/10/01 11:39:38;;;;;;;;;;;20.70;68.80;;;;;;5075665;28;19959;-82
2023/10/01 11:42:19;;;;;;;;;;;20.90;68.20;;;;;;5072727;28;20343;-82
2023/10/01 11:44:52;;;;;;;;;;;20.90;67.30;;;;;;5076060;28;19916;-81
2023/10/01 11:47:34;;;;;;;;;;;21.00;67.20;;;;;;5077263;28;20019;-81
2023/10/01 11:50:09;;;;;;;;;;;21.00;66.80;;;;;;5083457;28;20415;-82
2023/10/01 11:52:36;;;;;;;;;;;20.90;67.90;;;;;;5083643;28;19908;-81
2023/10/01 11:55:20;;;;;;;;;;;21.00;67.30;;;;;;5080879;28;19955;-81
2023/10/01 11:57:51;;;;;;;;;;;21.00;66.90;;;;;;5076566;28;19916;-82
2023/10/01 12:00:32;;;;;;;;;;;21.10;67.60;;;;;;5076248;28;19912;-81
2023/10/01 12:02:58;;;;;;;;;;;21.10;66.50;;;;;;5077674;28;19908;-82
2023/10/01 12:05:38;;;;;;;;;;;21.10;66.60;;;;;;5086567;28;19994;-81
2023/10/01 12:08:04;;;;;;;;;;;21.00;67.10;;;;;;5077748;28;19912;-81
2023/10/01 12:10:35;;;;;;;;;;;21.00;66.80;;;;;;5071815;28;19963;-81
2023/10/01 12:13:01;;;;;;;;;;;21.00;67.10;;;;;;5062840;28;20352;-79
2023/10/01 12:15:40;;;;;;;;;;;21.10;65.60;;;;;;5081244;28;19917;-81
2023/10/01 12:18:14;;;;;;;;;;;21.10;66.00;;;;;;5074215;28;19908;-81
2023/10/01 12:20:47;;;;;;;;;;;21.20;65.50;;;;;;5076523;28;20327;-81
2023/10/01 12:23:21;;;;;;;;;;;21.10;66.20;;;;;;5067504;28;19921;-80
2023/10/01 12:25:53;;;;;;;;;;;21.20;66.50;;;;;;5078346;28;19916;-80
2023/10/01 12:28:23;;;;;;;;;;;21.10;66.20;;;;;;5071006;28;19971;-80
2023/10/01 12:30:58;;;;;;;;;;;21.20;64.90;;;;;;5070838;28;19912;-81
2023/10/01 12:33:46;;;;;;;;;;;21.10;65.60;;;;;;5070723;28;19979;-81
2023/10/01 12:41:47;;;;;;;;;;;21.30;65.40;;;;;;5070926;28;19977;-80
2023/10/01 12:44:32;;;;;;;;;;;21.20;65.90;;;;;;5073530;28;19913;-80
2023/10/01 12:47:00;;;;;;;;;;;21.20;65.30;;;;;;5072174;28;19917;-80
2023/10/01 12:49:26;;;;;;;;;;;21.30;65.80;;;;;;5058748;28;19916;-81
2023/10/01 12:51:54;;;;;;;;;;;21.40;65.50;;;;;;5070861;28;19912;-79
2023/10/01 12:54:25;;;;;;;;;;;21.50;66.00;;;;;;5075872;28;19919;-80
2023/10/01 12:57:06;;;;;;;;;;;21.50;66.30;;;;;;5073192;28;19940;-81
2023/10/01 12:59:41;;;;;;;;;;;21.50;66.50;;;;;;5065552;28;19927;-81
2023/10/01 13:02:28;;;;;;;;;;;21.50;66.80;;;;;;5072666;28;20289;-81
2023/10/01 13:07:47;;;;;;;;;;;21.60;65.40;;;;;;5078997;28;19998;-81
2023/10/01 13:10:13;;;;;;;;;;;21.80;64.10;;;;;;5090008;28;19923;-82
2023/10/01 13:12:39;;;;;;;;;;;21.90;63.50;;;;;;5093175;28;19916;-81
2023/10/01 13:15:15;;;;;;;;;;;22.10;62.90;;;;;;5092582;28;20371;-80
2023/10/01 13:17:43;;;;;;;;;;;22.10;63.00;;;;;;5092615;28;19999;-80
2023/10/01 13:20:25;;;;;;;;;;;22.10;63.70;;;;;;5089918;28;19923;-81
2023/10/01 13:22:59;;;;;;;;;;;22.10;63.70;;;;;;5081040;28;19893;-80
2023/10/01 13:25:25;;;;;;;;;;;22.10;63.70;;;;;;5087198;28;19927;-80
2023/10/01 13:28:01;;;;;;;;;;;22.20;62.90;;;;;;5087093;28;19912;-80
2023/10/01 13:30:28;;;;;;;;;;;22.20;62.70;;;;;;5087554;28;19908;-81
2023/10/01 13:35:50;;;;;;;;;;;22.10;63.40;;;;;;5086276;28;19954;-80
2023/10/01 14:11:07;;;;;;;;;;;22.20;63.50;;;;;;5069960;28;19924;-81
2023/10/01 14:13:36;;;;;;;;;;;22.20;63.50;;;;;;5069607;28;19917;-81
2023/10/01 14:16:17;;;;;;;;;;;22.30;63.40;;;;;;5073484;28;19913;-81
2023/10/01 14:19:13;;;;;;;;;;;22.20;63.60;;;;;;5077799;28;19912;-81
2023/10/01 14:21:41;;;;;;;;;;;22.10;64.30;;;;;;5073782;28;19909;-82
2023/10/01 14:24:23;;;;;;;;;;;22.20;63.80;;;;;;5071227;28;19912;-81
2023/10/01 14:26:50;;;;;;;;;;;22.10;64.10;;;;;;5072054;28;19912;-82
2023/10/01 14:29:22;;;;;;;;;;;22.10;64.60;;;;;;5077586;28;20316;-81
2023/10/01 14:31:49;;;;;;;;;;;22.10;64.50;;;;;;5072738;28;19913;-82
2023/10/01 14:34:20;;;;;;;;;;;22.10;64.80;;;;;;5074402;28;19919;-80
2023/10/01 14:36:46;;;;;;;;;;;22.10;65.30;;;;;;5073731;28;19913;-81
2023/10/01 14:39:13;;;;;;;;;;;22.00;65.80;;;;;;5078711;28;19951;-82
2023/10/01 14:41:42;;;;;;;;;;;22.00;65.30;;;;;;5079141;28;19916;-81
2023/10/01 14:44:08;;;;;;;;;;;22.10;65.90;;;;;;5078281;28;19908;-82
2023/10/01 14:46:34;;;;;;;;;;;22.10;65.90;;;;;;5076831;28;19923;-82
2023/10/01 14:49:05;;;;;;;;;;;22.10;66.20;;;;;;5092893;28;19909;-82
2023/10/01 14:51:48;;;;;;;;;;;22.10;66.30;;;;;;5091733;28;19912;-82
2023/10/01 14:54:16;;;;;;;;;;;22.10;66.50;;;;;;5069355;28;19927;-82
2023/10/01 14:56:44;;;;;;;;;;;22.00;66.40;;;;;;5067148;28;20011;-81
2023/10/01 14:59:13;;;;;;;;;;;22.00;66.40;;;;;;5068152;28;19919;-81
2023/10/01 15:01:40;;;;;;;;;;;22.10;65.60;;;;;;5073397;28;19935;-81
2023/10/01 15:04:17;;;;;;;;;;;22.20;65.30;;;;;;5063164;28;19980;-81
2023/10/01 15:06:56;;;;;;;;;;;22.20;64.70;;;;;;5063170;28;19921;-80
2023/10/01 15:09:28;;;;;;;;;;;22.30;63.70;;;;;;5065373;28;19912;-81
2023/10/01 15:11:54;;;;;;;;;;;22.40;62.90;;;;;;5063727;28;21254;-81
2023/10/01 15:14:27;;;;;;;;;;;22.40;63.10;;;;;;5069839;28;19916;-81
2023/10/01 15:16:56;;;;;;;;;;;22.40;63.20;;;;;;5073810;28;19912;-82
2023/10/01 15:19:27;;;;;;;;;;;22.40;62.70;;;;;;5071794;28;19928;-81
2023/10/01 15:21:53;;;;;;;;;;;22.30;63.10;;;;;;5064578;28;19912;-81
2023/10/01 15:24:20;;;;;;;;;;;22.20;64.00;;;;;;5074767;28;20512;-82
2023/10/01 15:26:46;;;;;;;;;;;22.10;63.80;;;;;;5065766;28;19916;-80
2023/10/01 15:29:12;;;;;;;;;;;22.10;64.50;;;;;;5073766;28;20027;-81
2023/10/01 15:31:38;;;;;;;;;;;22.00;65.20;;;;;;5067038;28;19909;-82
2023/10/01 15:34:04;;;;;;;;;;;21.80;66.60;;;;;;5074985;28;19908;-82
2023/10/01 15:36:40;;;;;;;;;;;21.60;65.80;;;;;;5073701;28;20266;-82
2023/10/01 15:39:15;;;;;;;;;;;21.80;65.10;;;;;;5072549;28;19913;-82
2023/10/01 15:41:44;;;;;;;;;;;21.90;64.80;;;;;;5072615;28;19923;-82
2023/10/01 15:44:10;;;;;;;;;;;22.00;64.30;;;;;;5075350;28;19909;-82
2023/10/01 15:46:40;;;;;;;;;;;21.90;65.50;;;;;;5073411;28;19920;-81
2023/10/01 15:49:18;;;;;;;;;;;21.90;65.50;;;;;;5082952;28;19920;-80
2023/10/01 15:51:45;;;;;;;;;;;21.90;65.50;;;;;;5084335;28;20005;-81
2023/10/01 15:54:22;;;;;;;;;;;21.80;65.90;;;;;;5076655;28;19920;-81